createdAt,value
2019-03-10T00:00:36.199Z,8.07
2019-03-10T00:03:06.046Z,14.27
2019-03-10T00:05:36.058Z,14.77
2019-03-10T00:08:07.856Z,10.50
2019-03-10T00:10:37.364Z,11.97
2019-03-10T00:13:07.038Z,15.87
2019-03-10T00:15:37.092Z,14.30
2019-03-10T00:18:06.851Z,16.40
2019-03-10T00:20:36.684Z,13.60
2019-03-10T00:23:06.551Z,15.13
2019-03-10T00:25:36.409Z,20.00
2019-03-10T00:28:06.391Z,16.23
2019-03-10T00:30:36.216Z,12.40
2019-03-10T00:33:08.250Z,11.83
2019-03-10T00:35:37.834Z,16.30
2019-03-10T00:38:07.498Z,15.43
2019-03-10T00:40:59.853Z,15.00
2019-03-10T00:43:51.789Z,11.90
2019-03-10T00:46:51.734Z,14.03
2019-03-10T00:49:49.042Z,11.63
2019-03-10T00:52:23.372Z,8.73
2019-03-10T00:54:53.041Z,14.60
2019-03-10T00:57:22.701Z,18.97
2019-03-10T00:59:52.343Z,11.57
2019-03-10T01:02:22.051Z,14.77
2019-03-10T01:04:51.854Z,17.60
2019-03-10T01:07:21.636Z,17.37
2019-03-10T01:09:51.633Z,14.53
2019-03-10T01:12:21.401Z,7.80
2019-03-10T01:14:51.134Z,15.50
2019-03-10T01:17:21.556Z,15.47
2019-03-10T01:19:51.705Z,13.00
2019-03-10T01:22:22.942Z,17.13
2019-03-10T01:24:52.711Z,17.60
2019-03-10T01:27:22.699Z,19.30
2019-03-10T01:29:52.272Z,10.57
2019-03-10T01:32:57.516Z,16.77
2019-03-10T01:35:29.384Z,11.57
2019-03-10T01:37:59.175Z,14.57
2019-03-10T01:40:28.797Z,11.60
2019-03-10T01:42:58.327Z,11.07
2019-03-10T01:45:28.127Z,11.23
2019-03-10T01:47:59.293Z,10.13
2019-03-10T01:50:28.982Z,9.23
2019-03-10T01:52:58.938Z,10.77
2019-03-10T01:55:28.578Z,9.50
2019-03-10T01:57:58.161Z,17.13
2019-03-10T02:00:27.755Z,11.63
2019-03-10T02:02:57.346Z,14.57
2019-03-10T02:05:27.139Z,12.20
2019-03-10T02:07:57.302Z,12.53
2019-03-10T02:10:26.847Z,11.60
2019-03-10T02:12:56.335Z,13.53
2019-03-10T02:15:26.195Z,17.30
2019-03-10T02:17:55.851Z,14.63
2019-03-10T02:20:25.475Z,19.37
2019-03-10T02:22:55.047Z,9.97
2019-03-10T02:25:24.834Z,14.57
2019-03-10T02:27:54.705Z,15.23
2019-03-10T02:30:24.396Z,18.07
2019-03-10T02:32:54.107Z,12.60
2019-03-10T02:35:23.751Z,7.40
2019-03-10T02:37:53.432Z,15.63
2019-03-10T02:40:23.035Z,15.33
2019-03-10T02:42:52.627Z,14.30
2019-03-10T02:45:22.387Z,17.23
2019-03-10T02:47:51.949Z,13.53
2019-03-10T02:50:21.534Z,14.77
2019-03-10T02:52:51.136Z,15.40
2019-03-10T02:55:20.909Z,15.93
2019-03-10T02:57:50.554Z,21.20
2019-03-10T03:00:20.351Z,14.13
2019-03-10T03:02:49.968Z,22.13
2019-03-10T03:05:19.660Z,15.83
2019-03-10T03:07:49.125Z,11.60
2019-03-10T03:10:18.690Z,14.20
2019-03-10T03:12:48.354Z,14.47
2019-03-10T03:15:18.090Z,14.10
2019-03-10T03:17:47.746Z,18.03
2019-03-10T03:20:17.409Z,17.07
2019-03-10T03:22:47.034Z,16.97
2019-03-10T03:25:16.634Z,14.70
2019-03-10T03:27:46.287Z,19.03
2019-03-10T03:30:36.818Z,16.77
2019-03-10T03:33:06.684Z,19.20
2019-03-10T03:35:55.122Z,15.87
2019-03-10T03:38:34.680Z,16.17
2019-03-10T03:41:17.124Z,18.57
2019-03-10T03:43:46.654Z,15.27
2019-03-10T03:46:16.345Z,16.47
2019-03-10T03:48:45.972Z,13.70
2019-03-10T03:51:15.636Z,16.93
2019-03-10T03:53:45.258Z,18.37
2019-03-10T03:56:14.818Z,11.90
2019-03-10T03:58:44.686Z,16.90
2019-03-10T04:01:24.907Z,19.40
2019-03-10T04:03:54.904Z,15.17
2019-03-10T04:06:24.378Z,14.53
2019-03-10T04:08:53.984Z,12.23
2019-03-10T04:11:23.500Z,18.00
2019-03-10T04:13:53.109Z,17.67
2019-03-10T04:16:22.749Z,12.17
2019-03-10T04:18:52.487Z,13.93
2019-03-10T04:21:22.200Z,10.30
2019-03-10T04:23:52.157Z,12.43
2019-03-10T04:26:21.724Z,12.70
2019-03-10T04:28:51.329Z,13.47
2019-03-10T04:31:21.091Z,9.83
2019-03-10T04:33:50.727Z,13.27
2019-03-10T04:36:20.484Z,13.27
2019-03-10T04:38:50.089Z,13.13
2019-03-10T04:41:19.951Z,15.53
2019-03-10T04:43:49.610Z,10.13
2019-03-10T04:46:19.400Z,12.07
2019-03-10T04:48:48.979Z,9.77
2019-03-10T04:51:18.541Z,10.60
2019-03-10T04:53:48.485Z,11.90
2019-03-10T04:56:22.409Z,11.33
2019-03-10T04:58:52.436Z,10.03
2019-03-10T05:01:22.766Z,15.67
2019-03-10T05:03:52.258Z,17.13
2019-03-10T05:06:22.040Z,11.87
2019-03-10T05:08:51.535Z,14.10
2019-03-10T05:11:21.268Z,16.43
2019-03-10T05:13:50.881Z,14.53
2019-03-10T05:16:20.515Z,12.20
2019-03-10T05:18:50.146Z,14.20
2019-03-10T05:21:19.746Z,17.17
2019-03-10T05:23:49.321Z,15.77
2019-03-10T05:26:19.844Z,12.43
2019-03-10T05:28:49.491Z,17.60
2019-03-10T05:31:19.386Z,18.43
2019-03-10T05:33:49.214Z,17.57
2019-03-10T05:36:18.815Z,17.97
2019-03-10T05:38:48.516Z,15.63
2019-03-10T05:41:18.495Z,17.40
2019-03-10T05:43:48.124Z,15.83
2019-03-10T05:46:18.016Z,18.00
2019-03-10T05:48:47.480Z,23.53
2019-03-10T05:51:17.305Z,20.13
2019-03-10T05:53:46.862Z,21.00
2019-03-10T05:56:16.490Z,15.47
2019-03-10T05:58:46.227Z,19.30
2019-03-10T06:01:16.025Z,24.57
2019-03-10T06:03:45.733Z,25.03
2019-03-10T06:06:15.348Z,18.93
2019-03-10T06:08:44.889Z,24.63
2019-03-10T06:11:14.598Z,21.33
2019-03-10T06:13:44.255Z,20.30
2019-03-10T06:16:13.936Z,19.23
2019-03-10T06:18:43.443Z,20.83
2019-03-10T06:21:13.122Z,20.10
2019-03-10T06:23:42.810Z,19.50
2019-03-10T06:26:12.646Z,22.07
2019-03-10T06:28:42.270Z,32.67
2019-03-10T06:31:13.440Z,25.73
2019-03-10T06:33:43.234Z,20.40
2019-03-10T06:36:12.804Z,29.77
2019-03-10T06:38:42.720Z,28.17
2019-03-10T06:41:12.226Z,23.60
2019-03-10T06:43:42.026Z,20.97
2019-03-10T06:46:11.564Z,25.93
2019-03-10T06:48:41.153Z,20.57
2019-03-10T06:51:10.727Z,15.57
2019-03-10T06:53:40.251Z,24.43
2019-03-10T06:56:10.103Z,28.43
2019-03-10T06:58:39.668Z,20.17
2019-03-10T07:01:09.460Z,17.53
2019-03-10T07:03:39.110Z,16.97
2019-03-10T07:06:08.938Z,17.70
2019-03-10T07:08:38.525Z,20.53
2019-03-10T07:11:08.398Z,20.07
2019-03-10T07:13:39.719Z,19.07
2019-03-10T07:16:09.573Z,25.80
2019-03-10T07:18:39.207Z,15.53
2019-03-10T07:21:08.734Z,26.03
2019-03-10T07:23:38.288Z,21.93
2019-03-10T07:26:07.998Z,24.00
2019-03-10T07:28:39.282Z,23.87
2019-03-10T07:31:26.424Z,20.17
2019-03-10T07:34:01.670Z,26.63
2019-03-10T07:36:32.819Z,23.60
2019-03-10T07:39:19.365Z,15.47
2019-03-10T07:41:53.742Z,20.97
2019-03-10T07:44:25.892Z,16.03
2019-03-10T07:46:57.164Z,17.07
2019-03-10T07:49:34.212Z,13.37
2019-03-10T07:52:08.653Z,14.63
2019-03-10T07:54:39.210Z,13.97
2019-03-10T07:57:20.795Z,15.30
2019-03-10T08:00:08.071Z,14.37
2019-03-10T08:02:39.418Z,12.53
2019-03-10T08:05:16.450Z,10.83
2019-03-10T08:07:53.549Z,11.50
2019-03-10T08:10:24.786Z,12.73
2019-03-10T08:13:05.937Z,14.00
2019-03-10T08:15:35.307Z,16.03
2019-03-10T08:18:22.878Z,13.00
2019-03-10T08:21:06.272Z,12.97
2019-03-10T08:23:40.392Z,11.90
2019-03-10T08:26:14.787Z,10.07
2019-03-10T08:28:51.532Z,10.73
2019-03-10T08:31:31.743Z,10.97
2019-03-10T08:34:01.047Z,10.63
2019-03-10T08:36:35.114Z,11.90
2019-03-10T08:39:19.720Z,12.57
2019-03-10T08:42:00.007Z,10.97
2019-03-10T08:44:36.962Z,11.97
2019-03-10T08:47:10.727Z,10.13
2019-03-10T08:49:45.355Z,11.03
2019-03-10T08:52:27.324Z,10.20
2019-03-10T08:55:04.484Z,6.50
2019-03-10T08:57:41.878Z,9.77
2019-03-10T09:00:24.257Z,12.80
2019-03-10T09:02:55.414Z,8.37
2019-03-10T09:05:26.821Z,9.53
2019-03-10T09:08:13.745Z,9.77
2019-03-10T09:10:51.141Z,11.00
2019-03-10T09:13:22.629Z,9.00
2019-03-10T09:16:10.138Z,8.97
2019-03-10T09:18:57.549Z,7.77
2019-03-10T09:21:44.546Z,10.20
2019-03-10T09:24:17.076Z,5.03
2019-03-10T09:27:04.582Z,9.67
2019-03-10T09:29:45.759Z,7.20
2019-03-10T09:32:33.474Z,5.87
2019-03-10T09:35:10.605Z,6.37
2019-03-10T09:37:47.612Z,6.37
2019-03-10T09:40:34.989Z,6.73
2019-03-10T09:43:04.634Z,8.67
2019-03-10T09:45:48.247Z,8.57
2019-03-10T09:48:28.303Z,9.83
2019-03-10T09:51:05.429Z,7.87
2019-03-10T09:53:37.194Z,9.70
2019-03-10T09:56:23.239Z,8.70
2019-03-10T09:59:06.777Z,9.50
2019-03-10T10:01:44.973Z,11.03
2019-03-10T10:04:32.507Z,13.03
2019-03-10T10:07:04.086Z,9.97
2019-03-10T10:09:41.458Z,9.93
2019-03-10T10:12:17.657Z,12.87
2019-03-10T10:14:48.933Z,8.53
2019-03-10T10:17:28.205Z,12.03
2019-03-10T10:20:05.498Z,10.30
2019-03-10T10:22:42.585Z,13.93
2019-03-10T10:25:20.048Z,10.10
2019-03-10T10:27:51.662Z,8.93
2019-03-10T10:30:26.651Z,11.23
2019-03-10T10:33:04.283Z,8.80
2019-03-10T10:35:35.858Z,10.00
2019-03-10T10:38:17.961Z,9.90
2019-03-10T10:40:40.117Z,11.70
2019-03-10T10:43:20.706Z,10.67
2019-03-10T10:46:01.021Z,7.97
2019-03-10T10:48:41.552Z,8.07
2019-03-10T10:51:29.827Z,12.57
2019-03-10T10:54:01.391Z,8.80
2019-03-10T10:56:35.886Z,9.63
2019-03-10T10:59:07.308Z,8.03
2019-03-10T11:01:38.760Z,7.43
2019-03-10T11:04:22.553Z,8.97
2019-03-10T11:07:09.102Z,7.57
2019-03-10T11:09:46.042Z,8.97
2019-03-10T11:12:15.404Z,9.37
2019-03-10T11:15:02.814Z,8.50
2019-03-10T11:17:36.794Z,7.93
2019-03-10T11:20:11.716Z,8.20
2019-03-10T11:22:57.923Z,9.10
2019-03-10T11:25:41.318Z,8.87
2019-03-10T11:28:15.256Z,9.37
2019-03-10T11:30:47.027Z,9.03
2019-03-10T11:33:18.248Z,10.03
2019-03-10T11:36:07.878Z,7.87
2019-03-10T11:38:41.808Z,9.47
2019-03-10T11:41:13.883Z,9.23
2019-03-10T11:43:57.180Z,7.33
2019-03-10T11:46:33.465Z,13.30
2019-03-10T11:49:22.991Z,10.37
2019-03-10T11:51:54.205Z,7.67
2019-03-10T11:54:41.411Z,11.00
2019-03-10T11:57:12.738Z,7.30
2019-03-10T11:59:44.218Z,10.37
2019-03-10T12:02:20.963Z,8.90
2019-03-10T12:05:05.519Z,9.27
2019-03-10T12:07:35.086Z,7.13
2019-03-10T12:10:07.589Z,7.50
2019-03-10T12:12:37.133Z,7.43
2019-03-10T12:15:11.515Z,8.73
2019-03-10T12:17:41.096Z,8.20
2019-03-10T12:20:13.703Z,9.23
2019-03-10T12:22:43.272Z,7.30
2019-03-10T12:25:14.638Z,5.97
2019-03-10T12:27:44.354Z,7.67
2019-03-10T12:30:16.438Z,6.80
2019-03-10T12:32:46.021Z,7.00
2019-03-10T12:35:15.856Z,7.93
2019-03-10T12:37:45.485Z,5.77
2019-03-10T12:40:15.203Z,7.53
2019-03-10T12:42:44.953Z,7.13
2019-03-10T12:45:14.759Z,6.73
2019-03-10T12:47:44.256Z,8.80
2019-03-10T12:50:15.120Z,8.10
2019-03-10T12:52:44.726Z,8.23
2019-03-10T12:55:14.450Z,9.47
2019-03-10T12:57:44.053Z,7.27
2019-03-10T13:00:16.068Z,6.10
2019-03-10T13:02:45.606Z,6.40
2019-03-10T13:05:15.125Z,7.27
2019-03-10T13:07:44.884Z,8.80
2019-03-10T13:10:14.558Z,13.53
2019-03-10T13:12:44.129Z,12.00
2019-03-10T13:15:14.114Z,8.80
2019-03-10T13:17:43.790Z,7.57
2019-03-10T13:20:13.877Z,9.20
2019-03-10T13:22:43.472Z,11.30
2019-03-10T13:25:14.086Z,8.77
2019-03-10T13:27:43.613Z,9.00
2019-03-10T13:30:15.916Z,12.33
2019-03-10T13:32:45.562Z,14.00
2019-03-10T13:35:15.377Z,17.50
2019-03-10T13:37:44.946Z,17.07
2019-03-10T13:40:16.074Z,14.87
2019-03-10T13:42:45.591Z,16.33
2019-03-10T13:45:18.250Z,15.60
2019-03-10T13:47:48.046Z,16.37
2019-03-10T13:50:17.871Z,14.67
2019-03-10T13:52:47.435Z,17.40
2019-03-10T13:55:17.360Z,17.93
2019-03-10T13:57:46.947Z,24.90
2019-03-10T14:00:21.241Z,15.47
2019-03-10T14:02:50.818Z,18.33
2019-03-10T14:05:20.439Z,17.37
2019-03-10T14:07:50.047Z,18.07
2019-03-10T14:10:19.820Z,16.93
2019-03-10T14:12:49.668Z,18.10
2019-03-10T14:15:19.421Z,19.70
2019-03-10T14:17:49.207Z,21.40
2019-03-10T14:20:18.828Z,20.03
2019-03-10T14:22:48.669Z,21.80
2019-03-10T14:25:18.536Z,19.83
2019-03-10T14:27:48.332Z,23.37
2019-03-10T14:32:55.970Z,19.40
2019-03-10T14:35:25.618Z,20.63
2019-03-10T14:37:55.285Z,22.80
2019-03-10T14:40:25.018Z,26.07
2019-03-10T14:42:54.716Z,28.40
2019-03-10T14:45:24.500Z,23.07
2019-03-10T14:47:54.412Z,15.10
2019-03-10T14:50:23.958Z,14.33
2019-03-10T14:52:53.686Z,12.97
2019-03-10T14:55:23.842Z,9.13
2019-03-10T14:57:53.888Z,8.33
2019-03-10T15:00:30.395Z,7.77
2019-03-10T15:03:00.022Z,10.37
2019-03-10T15:05:29.687Z,13.60
2019-03-10T15:07:59.415Z,10.80
2019-03-10T15:10:29.106Z,9.63
2019-03-10T15:12:58.717Z,6.30
2019-03-10T15:15:28.195Z,9.40
2019-03-10T15:17:57.899Z,6.30
2019-03-10T15:20:27.542Z,3.93
2019-03-10T15:22:57.273Z,4.30
2019-03-10T15:25:26.907Z,3.40
2019-03-10T15:27:57.492Z,7.70
2019-03-10T15:30:28.042Z,10.00
2019-03-10T15:32:57.677Z,6.97
2019-03-10T15:35:27.357Z,12.87
2019-03-10T15:37:56.859Z,7.80
2019-03-10T15:40:26.530Z,8.70
2019-03-10T15:42:56.295Z,5.80
2019-03-10T15:45:27.816Z,11.90
2019-03-10T15:47:57.235Z,7.83
2019-03-10T15:50:33.375Z,5.27
2019-03-10T15:53:03.049Z,9.27
2019-03-10T15:55:32.940Z,7.93
2019-03-10T15:58:04.025Z,10.40
2019-03-10T16:00:34.209Z,9.40
2019-03-10T16:03:03.847Z,11.30
2019-03-10T16:05:33.656Z,8.40
2019-03-10T16:08:03.403Z,7.13
2019-03-10T16:10:33.209Z,6.57
2019-03-10T16:13:02.693Z,11.57
2019-03-10T16:15:32.691Z,5.67
2019-03-10T16:18:02.350Z,4.27
2019-03-10T16:20:31.938Z,8.10
2019-03-10T16:23:01.574Z,7.47
2019-03-10T16:25:31.168Z,9.53
2019-03-10T16:28:00.918Z,3.37
2019-03-10T16:30:30.813Z,1.40
2019-03-10T16:33:00.747Z,3.17
2019-03-10T16:35:30.416Z,4.53
2019-03-10T16:38:00.091Z,5.83
2019-03-10T16:40:29.675Z,2.43
2019-03-10T16:42:59.495Z,1.37
2019-03-10T16:45:30.056Z,1.80
2019-03-10T16:48:00.334Z,1.00
2019-03-10T16:50:30.489Z,1.37
2019-03-10T16:53:00.402Z,0.97
2019-03-10T16:55:31.200Z,0.67
2019-03-10T16:58:00.812Z,3.03
2019-03-10T17:00:30.377Z,2.47
2019-03-10T17:03:00.203Z,2.10
2019-03-10T17:05:29.891Z,1.30
2019-03-10T17:07:59.661Z,1.43
2019-03-10T17:10:29.259Z,1.30
2019-03-10T17:12:58.937Z,1.00
2019-03-10T17:15:28.550Z,1.10
2019-03-10T17:17:58.216Z,1.17
2019-03-10T17:20:27.791Z,1.17
2019-03-10T17:22:57.510Z,0.90
2019-03-10T17:25:27.119Z,1.00
2019-03-10T17:27:56.833Z,1.23
2019-03-10T17:30:27.652Z,1.03
2019-03-10T17:32:57.194Z,1.50
2019-03-10T17:35:26.867Z,1.57
2019-03-10T17:37:56.473Z,1.70
2019-03-10T17:40:26.796Z,2.83
2019-03-10T17:42:56.414Z,2.97
2019-03-10T17:45:28.786Z,3.43
2019-03-10T17:47:58.350Z,5.87
2019-03-10T17:50:27.965Z,3.30
2019-03-10T17:52:57.526Z,3.60
2019-03-10T17:55:27.457Z,2.33
2019-03-10T17:57:57.072Z,2.97
2019-03-10T18:00:28.448Z,2.00
2019-03-10T18:02:58.705Z,2.70
2019-03-10T18:05:28.711Z,2.30
2019-03-10T18:07:58.349Z,3.17
2019-03-10T18:10:28.931Z,2.83
2019-03-10T18:12:58.844Z,3.63
2019-03-10T18:15:28.653Z,6.80
2019-03-10T18:17:58.224Z,11.33
2019-03-10T18:20:27.901Z,8.33
2019-03-10T18:22:57.487Z,11.47
2019-03-10T18:25:28.844Z,12.17
2019-03-10T18:27:58.369Z,11.07
2019-03-10T18:30:28.716Z,4.10
2019-03-10T18:32:58.400Z,6.47
2019-03-10T18:35:28.075Z,4.70
2019-03-10T18:37:57.784Z,5.53
2019-03-10T18:40:29.063Z,9.57
2019-03-10T18:42:58.673Z,8.50
2019-03-10T18:45:28.455Z,6.40
2019-03-10T18:47:58.207Z,5.60
2019-03-10T18:50:28.968Z,5.07
2019-03-10T18:52:59.456Z,5.93
2019-03-10T18:55:30.134Z,4.10
2019-03-10T18:57:59.810Z,5.67
2019-03-10T19:00:33.455Z,5.67
2019-03-10T19:03:03.192Z,6.93
2019-03-10T19:05:34.783Z,4.13
2019-03-10T19:08:04.488Z,6.63
2019-03-10T19:10:33.978Z,4.30
2019-03-10T19:13:05.622Z,6.40
2019-03-10T19:15:35.455Z,4.13
2019-03-10T19:18:05.056Z,4.03
2019-03-10T19:20:35.045Z,5.23
2019-03-10T19:23:04.663Z,4.53
2019-03-10T19:25:34.391Z,4.87
2019-03-10T19:28:04.150Z,5.67
2019-03-10T19:30:33.651Z,6.67
2019-03-10T19:33:03.436Z,4.70
2019-03-10T19:35:33.135Z,5.77
2019-03-10T19:38:04.560Z,5.10
2019-03-10T19:40:34.544Z,5.40
2019-03-10T19:43:05.038Z,4.37
2019-03-10T19:45:34.598Z,10.87
2019-03-10T19:48:04.360Z,5.30
2019-03-10T19:50:33.980Z,4.70
2019-03-10T19:53:03.802Z,4.77
2019-03-10T19:55:33.388Z,4.00
2019-03-10T19:58:03.385Z,5.30
2019-03-10T20:00:32.932Z,5.07
2019-03-10T20:03:02.552Z,5.37
2019-03-10T20:05:32.248Z,5.03
2019-03-10T20:08:01.932Z,4.97
2019-03-10T20:10:31.666Z,5.13
2019-03-10T20:13:01.258Z,4.80
2019-03-10T20:15:31.001Z,7.93
2019-03-10T20:18:00.654Z,4.03
2019-03-10T20:20:37.497Z,5.20
2019-03-10T20:23:07.132Z,6.20
2019-03-10T20:25:36.864Z,6.23
2019-03-10T20:28:09.112Z,6.17
2019-03-10T20:30:38.090Z,7.00
2019-03-10T20:33:07.793Z,7.43
2019-03-10T20:35:37.410Z,8.70
2019-03-10T20:38:07.162Z,8.20
2019-03-10T20:40:36.885Z,9.63
2019-03-10T20:43:06.516Z,9.13
2019-03-10T20:45:36.300Z,8.03
2019-03-10T20:48:06.030Z,8.53
2019-03-10T20:50:35.715Z,9.10
2019-03-10T20:53:05.282Z,9.43
2019-03-10T20:55:34.947Z,9.53
2019-03-10T20:58:04.598Z,8.37
2019-03-10T21:00:34.358Z,9.47
2019-03-10T21:03:04.069Z,9.33
2019-03-10T21:05:33.763Z,9.97
2019-03-10T21:08:03.617Z,13.17
2019-03-10T21:10:33.283Z,11.37
2019-03-10T21:13:03.072Z,11.13
2019-03-10T21:15:32.886Z,10.87
2019-03-10T21:18:02.591Z,10.50
2019-03-10T21:20:32.426Z,12.60
2019-03-10T21:23:01.989Z,11.20
2019-03-10T21:25:34.478Z,9.33
2019-03-10T21:28:04.106Z,10.77
2019-03-10T21:30:34.936Z,8.97
2019-03-10T21:33:04.781Z,9.10
2019-03-10T21:35:34.465Z,9.90
2019-03-10T21:38:04.092Z,9.03
2019-03-10T21:40:34.807Z,10.43
2019-03-10T21:43:04.558Z,8.33
2019-03-10T21:45:34.855Z,8.77
2019-03-10T21:48:04.612Z,10.67
2019-03-10T21:50:34.568Z,10.50
2019-03-10T21:53:04.177Z,7.97
2019-03-10T21:55:33.990Z,10.47
2019-03-10T21:58:03.512Z,7.60
2019-03-10T22:00:33.262Z,10.07
2019-03-10T22:03:02.957Z,6.30
2019-03-10T22:05:32.764Z,6.23
2019-03-10T22:08:02.357Z,5.23
2019-03-10T22:10:31.874Z,5.97
2019-03-10T22:13:01.452Z,5.43
2019-03-10T22:15:41.318Z,4.60
2019-03-10T22:18:02.613Z,4.97
2019-03-10T22:20:32.344Z,4.57
2019-03-10T22:23:02.040Z,5.23
2019-03-10T22:25:31.656Z,3.43
2019-03-10T22:28:01.320Z,4.00
2019-03-10T22:30:30.832Z,4.90
2019-03-10T22:33:00.682Z,5.13
2019-03-10T22:35:30.381Z,5.40
2019-03-10T22:38:00.150Z,4.53
2019-03-10T22:40:29.797Z,5.27
2019-03-10T22:42:59.470Z,5.13
2019-03-10T22:45:29.051Z,4.20
2019-03-10T22:47:58.679Z,7.57
2019-03-10T22:50:28.423Z,3.90
2019-03-10T22:52:58.081Z,2.53
2019-03-10T22:55:27.822Z,5.03
2019-03-10T22:57:57.480Z,3.83
2019-03-10T23:00:46.431Z,4.70
2019-03-10T23:03:16.622Z,6.97
2019-03-10T23:05:46.225Z,4.70
2019-03-10T23:08:15.798Z,7.63
2019-03-10T23:10:45.359Z,4.17
2019-03-10T23:13:14.829Z,5.87
2019-03-10T23:15:44.785Z,2.87
2019-03-10T23:18:14.306Z,3.97
2019-03-10T23:20:44.219Z,5.50
2019-03-10T23:23:13.779Z,11.27
2019-03-10T23:25:43.604Z,6.23
2019-03-10T23:28:13.215Z,5.40
2019-03-10T23:30:43.088Z,8.33
2019-03-10T23:33:12.634Z,6.93
2019-03-10T23:35:42.481Z,10.67
2019-03-10T23:38:12.194Z,6.13
2019-03-10T23:40:41.829Z,7.33
2019-03-10T23:43:11.775Z,5.57
2019-03-10T23:45:41.480Z,9.50
2019-03-10T23:48:11.134Z,7.53
2019-03-10T23:50:40.936Z,7.50
2019-03-10T23:53:10.508Z,9.20
2019-03-10T23:55:40.258Z,9.67
2019-03-10T23:58:09.974Z,13.80
